sensor_id;sensor_type;location;lat;lon;timestamp;P1;durP1;ratioP1;P2;durP2;ratioP2
21647;SDS011;10985;54.182;7.890;2023-08-08T00:01:50;20.83;;;4.50;;
21647;SDS011;10985;54.182;7.890;2023-08-08T00:04:15;20.08;;;4.70;;
21647;SDS011;10985;54.182;7.890;2023-08-08T00:06:41;24.90;;;4.97;;
21647;SDS011;10985;54.182;7.890;2023-08-08T00:09:06;15.68;;;3.97;;
21647;SDS011;10985;54.182;7.890;2023-08-08T00:11:32;19.48;;;4.22;;
21647;SDS011;10985;54.182;7.890;2023-08-08T00:13:58;12.05;;;3.35;;
21647;SDS011;10985;54.182;7.890;2023-08-08T00:16:23;16.35;;;4.85;;
21647;SDS011;10985;54.182;7.890;2023-08-08T00:18:49;22.70;;;4.32;;
21647;SDS011;10985;54.182;7.890;2023-08-08T00:21:17;20.92;;;4.00;;
21647;SDS011;10985;54.182;7.890;2023-08-08T00:23:42;28.45;;;4.88;;
21647;SDS011;10985;54.182;7.890;2023-08-08T00:26:08;21.83;;;4.22;;
21647;SDS011;10985;54.182;7.890;2023-08-08T00:28:33;14.55;;;3.92;;
21647;SDS011;10985;54.182;7.890;2023-08-08T00:30:59;16.35;;;3.95;;
21647;SDS011;10985;54.182;7.890;2023-08-08T00:33:25;28.45;;;5.20;;
21647;SDS011;10985;54.182;7.890;2023-08-08T00:35:50;24.58;;;5.20;;
21647;SDS011;10985;54.182;7.890;2023-08-08T00:38:16;22.98;;;4.10;;
21647;SDS011;10985;54.182;7.890;2023-08-08T00:40:43;18.05;;;4.82;;
21647;SDS011;10985;54.182;7.890;2023-08-08T00:43:08;15.55;;;3.00;;
21647;SDS011;10985;54.182;7.890;2023-08-08T00:45:34;12.07;;;3.53;;
21647;SDS011;10985;54.182;7.890;2023-08-08T00:48:00;18.27;;;3.75;;
21647;SDS011;10985;54.182;7.890;2023-08-08T00:50:26;18.38;;;4.10;;
21647;SDS011;10985;54.182;7.890;2023-08-08T00:52:52;16.30;;;4.07;;
21647;SDS011;10985;54.182;7.890;2023-08-08T00:55:18;15.45;;;4.18;;
21647;SDS011;10985;54.182;7.890;2023-08-08T00:57:44;14.80;;;3.38;;
21647;SDS011;10985;54.182;7.890;2023-08-08T01:00:10;18.88;;;4.18;;
21647;SDS011;10985;54.182;7.890;2023-08-08T01:02:36;20.90;;;4.20;;
21647;SDS011;10985;54.182;7.890;2023-08-08T01:05:02;24.67;;;4.68;;
21647;SDS011;10985;54.182;7.890;2023-08-08T01:10:25;17.20;;;3.90;;
21647;SDS011;10985;54.182;7.890;2023-08-08T01:12:55;24.15;;;4.88;;
21647;SDS011;10985;54.182;7.890;2023-08-08T01:15:24;17.63;;;3.80;;
21647;SDS011;10985;54.182;7.890;2023-08-08T01:17:50;21.27;;;4.53;;
21647;SDS011;10985;54.182;7.890;2023-08-08T01:20:16;12.98;;;3.78;;
21647;SDS011;10985;54.182;7.890;2023-08-08T01:25:36;18.88;;;3.25;;
21647;SDS011;10985;54.182;7.890;2023-08-08T01:28:05;17.45;;;4.00;;
21647;SDS011;10985;54.182;7.890;2023-08-08T01:30:32;20.92;;;4.15;;
21647;SDS011;10985;54.182;7.890;2023-08-08T01:32:57;13.57;;;3.63;;
21647;SDS011;10985;54.182;7.890;2023-08-08T01:35:23;15.05;;;3.53;;
21647;SDS011;10985;54.182;7.890;2023-08-08T01:37:54;11.65;;;3.50;;
21647;SDS011;10985;54.182;7.890;2023-08-08T01:40:25;13.25;;;3.60;;
21647;SDS011;10985;54.182;7.890;2023-08-08T01:42:53;14.32;;;3.60;;
21647;SDS011;10985;54.182;7.890;2023-08-08T01:45:20;17.20;;;3.40;;
21647;SDS011;10985;54.182;7.890;2023-08-08T01:47:49;16.88;;;3.30;;
21647;SDS011;10985;54.182;7.890;2023-08-08T01:50:15;17.48;;;3.95;;
21647;SDS011;10985;54.182;7.890;2023-08-08T01:52:41;17.52;;;3.63;;
21647;SDS011;10985;54.182;7.890;2023-08-08T01:55:07;17.88;;;4.47;;
21647;SDS011;10985;54.182;7.890;2023-08-08T01:57:33;11.15;;;3.17;;
21647;SDS011;10985;54.182;7.890;2023-08-08T01:59:58;12.35;;;2.95;;
21647;SDS011;10985;54.182;7.890;2023-08-08T02:02:24;25.65;;;4.03;;
21647;SDS011;10985;54.182;7.890;2023-08-08T02:04:49;20.48;;;3.47;;
21647;SDS011;10985;54.182;7.890;2023-08-08T02:07:15;18.77;;;3.30;;
21647;SDS011;10985;54.182;7.890;2023-08-08T02:09:41;12.02;;;3.40;;
21647;SDS011;10985;54.182;7.890;2023-08-08T02:12:06;13.65;;;3.88;;
21647;SDS011;10985;54.182;7.890;2023-08-08T02:14:32;21.77;;;3.83;;
21647;SDS011;10985;54.182;7.890;2023-08-08T02:16:58;21.85;;;4.18;;
21647;SDS011;10985;54.182;7.890;2023-08-08T02:19:23;17.33;;;3.30;;
21647;SDS011;10985;54.182;7.890;2023-08-08T02:21:49;16.15;;;3.60;;
21647;SDS011;10985;54.182;7.890;2023-08-08T02:24:14;17.77;;;3.95;;
21647;SDS011;10985;54.182;7.890;2023-08-08T02:26:40;13.32;;;3.72;;
21647;SDS011;10985;54.182;7.890;2023-08-08T02:29:05;14.02;;;3.50;;
21647;SDS011;10985;54.182;7.890;2023-08-08T02:31:31;15.80;;;3.65;;
21647;SDS011;10985;54.182;7.890;2023-08-08T02:33:56;14.65;;;2.90;;
21647;SDS011;10985;54.182;7.890;2023-08-08T02:36:22;13.00;;;3.40;;
21647;SDS011;10985;54.182;7.890;2023-08-08T02:38:47;13.88;;;2.75;;
21647;SDS011;10985;54.182;7.890;2023-08-08T02:41:14;9.57;;;3.45;;
21647;SDS011;10985;54.182;7.890;2023-08-08T02:43:40;14.05;;;2.88;;
21647;SDS011;10985;54.182;7.890;2023-08-08T02:46:05;18.73;;;3.65;;
21647;SDS011;10985;54.182;7.890;2023-08-08T02:48:32;12.32;;;3.28;;
21647;SDS011;10985;54.182;7.890;2023-08-08T02:50:57;9.70;;;2.97;;
21647;SDS011;10985;54.182;7.890;2023-08-08T02:53:23;13.85;;;2.90;;
21647;SDS011;10985;54.182;7.890;2023-08-08T02:55:48;9.88;;;3.42;;
21647;SDS011;10985;54.182;7.890;2023-08-08T02:58:14;16.02;;;3.33;;
21647;SDS011;10985;54.182;7.890;2023-08-08T03:00:40;15.88;;;3.63;;
21647;SDS011;10985;54.182;7.890;2023-08-08T03:03:05;17.50;;;3.67;;
21647;SDS011;10985;54.182;7.890;2023-08-08T03:05:31;7.47;;;2.90;;
21647;SDS011;10985;54.182;7.890;2023-08-08T03:07:56;12.85;;;3.88;;
21647;SDS011;10985;54.182;7.890;2023-08-08T03:10:22;16.70;;;3.35;;
21647;SDS011;10985;54.182;7.890;2023-08-08T03:12:47;11.23;;;3.40;;
21647;SDS011;10985;54.182;7.890;2023-08-08T03:15:13;10.50;;;3.22;;
21647;SDS011;10985;54.182;7.890;2023-08-08T03:17:39;16.95;;;3.78;;
21647;SDS011;10985;54.182;7.890;2023-08-08T03:20:04;16.98;;;4.65;;
21647;SDS011;10985;54.182;7.890;2023-08-08T03:22:31;9.45;;;3.15;;
21647;SDS011;10985;54.182;7.890;2023-08-08T03:24:57;14.60;;;3.22;;
21647;SDS011;10985;54.182;7.890;2023-08-08T03:27:23;16.23;;;3.42;;
21647;SDS011;10985;54.182;7.890;2023-08-08T03:29:49;15.27;;;3.35;;
21647;SDS011;10985;54.182;7.890;2023-08-08T03:32:15;11.70;;;3.55;;
21647;SDS011;10985;54.182;7.890;2023-08-08T03:34:40;9.70;;;3.28;;
21647;SDS011;10985;54.182;7.890;2023-08-08T03:37:06;12.95;;;2.95;;
21647;SDS011;10985;54.182;7.890;2023-08-08T03:39:31;12.70;;;3.38;;
21647;SDS011;10985;54.182;7.890;2023-08-08T03:41:57;12.18;;;2.67;;
21647;SDS011;10985;54.182;7.890;2023-08-08T03:44:22;18.27;;;3.15;;
21647;SDS011;10985;54.182;7.890;2023-08-08T03:46:48;9.60;;;2.72;;
21647;SDS011;10985;54.182;7.890;2023-08-08T03:49:14;11.73;;;3.17;;
21647;SDS011;10985;54.182;7.890;2023-08-08T03:51:40;8.45;;;2.40;;
21647;SDS011;10985;54.182;7.890;2023-08-08T03:54:05;14.07;;;3.03;;
21647;SDS011;10985;54.182;7.890;2023-08-08T03:56:31;19.13;;;3.45;;
21647;SDS011;10985;54.182;7.890;2023-08-08T03:58:57;18.90;;;3.72;;
21647;SDS011;10985;54.182;7.890;2023-08-08T04:01:23;11.38;;;2.90;;
21647;SDS011;10985;54.182;7.890;2023-08-08T04:03:48;15.38;;;3.15;;
21647;SDS011;10985;54.182;7.890;2023-08-08T04:06:14;11.90;;;3.17;;
21647;SDS011;10985;54.182;7.890;2023-08-08T04:08:39;13.90;;;3.50;;
21647;SDS011;10985;54.182;7.890;2023-08-08T04:11:05;12.55;;;3.67;;
21647;SDS011;10985;54.182;7.890;2023-08-08T04:13:30;14.93;;;3.92;;
21647;SDS011;10985;54.182;7.890;2023-08-08T04:15:56;10.70;;;2.63;;
21647;SDS011;10985;54.182;7.890;2023-08-08T04:18:21;18.58;;;4.35;;
21647;SDS011;10985;54.182;7.890;2023-08-08T04:20:47;8.50;;;2.70;;
21647;SDS011;10985;54.182;7.890;2023-08-08T04:23:13;9.27;;;3.42;;
21647;SDS011;10985;54.182;7.890;2023-08-08T04:25:38;8.40;;;2.63;;
21647;SDS011;10985;54.182;7.890;2023-08-08T04:28:04;13.32;;;2.58;;
21647;SDS011;10985;54.182;7.890;2023-08-08T04:30:30;12.25;;;3.13;;
21647;SDS011;10985;54.182;7.890;2023-08-08T04:32:55;16.30;;;3.00;;
21647;SDS011;10985;54.182;7.890;2023-08-08T04:35:21;15.10;;;3.60;;
21647;SDS011;10985;54.182;7.890;2023-08-08T04:37:46;11.57;;;3.25;;
21647;SDS011;10985;54.182;7.890;2023-08-08T04:40:12;9.35;;;2.95;;
21647;SDS011;10985;54.182;7.890;2023-08-08T04:42:37;13.45;;;3.05;;
21647;SDS011;10985;54.182;7.890;2023-08-08T04:45:03;13.02;;;2.70;;
21647;SDS011;10985;54.182;7.890;2023-08-08T04:47:29;9.73;;;2.40;;
21647;SDS011;10985;54.182;7.890;2023-08-08T04:49:55;15.73;;;3.67;;
21647;SDS011;10985;54.182;7.890;2023-08-08T04:52:20;13.10;;;3.33;;
21647;SDS011;10985;54.182;7.890;2023-08-08T04:54:46;12.70;;;3.00;;
21647;SDS011;10985;54.182;7.890;2023-08-08T04:57:11;11.90;;;2.80;;
21647;SDS011;10985;54.182;7.890;2023-08-08T04:59:37;15.18;;;3.15;;
21647;SDS011;10985;54.182;7.890;2023-08-08T05:02:02;7.68;;;3.63;;
21647;SDS011;10985;54.182;7.890;2023-08-08T05:04:29;14.35;;;3.17;;
21647;SDS011;10985;54.182;7.890;2023-08-08T05:06:55;7.30;;;2.63;;
21647;SDS011;10985;54.182;7.890;2023-08-08T05:09:21;11.40;;;2.90;;
21647;SDS011;10985;54.182;7.890;2023-08-08T05:11:51;8.90;;;2.92;;
21647;SDS011;10985;54.182;7.890;2023-08-08T05:14:17;13.18;;;2.80;;
21647;SDS011;10985;54.182;7.890;2023-08-08T05:16:42;10.30;;;3.38;;
21647;SDS011;10985;54.182;7.890;2023-08-08T05:19:08;11.18;;;2.63;;
21647;SDS011;10985;54.182;7.890;2023-08-08T05:21:34;10.75;;;2.50;;
21647;SDS011;10985;54.182;7.890;2023-08-08T05:24:00;9.85;;;2.40;;
21647;SDS011;10985;54.182;7.890;2023-08-08T05:26:25;16.77;;;2.70;;
21647;SDS011;10985;54.182;7.890;2023-08-08T05:28:51;10.85;;;2.40;;
21647;SDS011;10985;54.182;7.890;2023-08-08T05:31:16;15.77;;;2.92;;
21647;SDS011;10985;54.182;7.890;2023-08-08T05:33:42;13.90;;;2.70;;
21647;SDS011;10985;54.182;7.890;2023-08-08T05:36:07;13.75;;;2.63;;
21647;SDS011;10985;54.182;7.890;2023-08-08T05:38:33;14.73;;;3.05;;
21647;SDS011;10985;54.182;7.890;2023-08-08T05:40:58;12.93;;;3.15;;
21647;SDS011;10985;54.182;7.890;2023-08-08T05:43:24;10.77;;;2.20;;
21647;SDS011;10985;54.182;7.890;2023-08-08T05:45:49;10.88;;;2.65;;
21647;SDS011;10985;54.182;7.890;2023-08-08T05:48:15;12.70;;;2.58;;
21647;SDS011;10985;54.182;7.890;2023-08-08T05:50:40;12.40;;;2.53;;
21647;SDS011;10985;54.182;7.890;2023-08-08T05:53:06;8.68;;;2.10;;
21647;SDS011;10985;54.182;7.890;2023-08-08T05:55:32;10.15;;;2.58;;
21647;SDS011;10985;54.182;7.890;2023-08-08T05:57:57;11.70;;;3.30;;
21647;SDS011;10985;54.182;7.890;2023-08-08T06:00:23;9.93;;;2.70;;
21647;SDS011;10985;54.182;7.890;2023-08-08T06:02:49;11.10;;;2.78;;
21647;SDS011;10985;54.182;7.890;2023-08-08T06:05:16;15.63;;;3.08;;
21647;SDS011;10985;54.182;7.890;2023-08-08T06:07:42;16.08;;;2.67;;
21647;SDS011;10985;54.182;7.890;2023-08-08T06:10:08;16.85;;;2.70;;
21647;SDS011;10985;54.182;7.890;2023-08-08T06:12:34;10.10;;;2.58;;
21647;SDS011;10985;54.182;7.890;2023-08-08T06:15:00;8.90;;;2.17;;
21647;SDS011;10985;54.182;7.890;2023-08-08T06:17:25;9.07;;;2.45;;
21647;SDS011;10985;54.182;7.890;2023-08-08T06:19:51;18.98;;;3.45;;
21647;SDS011;10985;54.182;7.890;2023-08-08T06:22:18;18.70;;;3.42;;
21647;SDS011;10985;54.182;7.890;2023-08-08T06:24:44;18.05;;;3.13;;
21647;SDS011;10985;54.182;7.890;2023-08-08T06:27:10;15.45;;;2.80;;
21647;SDS011;10985;54.182;7.890;2023-08-08T06:29:35;13.00;;;2.85;;
21647;SDS011;10985;54.182;7.890;2023-08-08T06:32:01;15.48;;;3.17;;
21647;SDS011;10985;54.182;7.890;2023-08-08T06:34:26;16.35;;;3.38;;
21647;SDS011;10985;54.182;7.890;2023-08-08T06:36:52;8.98;;;2.42;;
21647;SDS011;10985;54.182;7.890;2023-08-08T06:39:17;8.68;;;2.85;;
21647;SDS011;10985;54.182;7.890;2023-08-08T06:41:46;12.73;;;2.53;;
21647;SDS011;10985;54.182;7.890;2023-08-08T06:44:11;11.50;;;2.13;;
21647;SDS011;10985;54.182;7.890;2023-08-08T06:46:37;14.35;;;2.67;;
21647;SDS011;10985;54.182;7.890;2023-08-08T06:49:02;16.63;;;3.00;;
21647;SDS011;10985;54.182;7.890;2023-08-08T06:51:29;10.10;;;2.53;;
21647;SDS011;10985;54.182;7.890;2023-08-08T06:53:54;6.65;;;2.70;;
21647;SDS011;10985;54.182;7.890;2023-08-08T06:56:20;14.93;;;3.03;;
21647;SDS011;10985;54.182;7.890;2023-08-08T06:58:46;5.80;;;1.80;;
21647;SDS011;10985;54.182;7.890;2023-08-08T07:01:11;5.60;;;1.58;;
21647;SDS011;10985;54.182;7.890;2023-08-08T07:03:38;6.20;;;2.00;;
21647;SDS011;10985;54.182;7.890;2023-08-08T07:06:04;6.10;;;2.40;;
21647;SDS011;10985;54.182;7.890;2023-08-08T07:08:29;9.23;;;1.75;;
21647;SDS011;10985;54.182;7.890;2023-08-08T07:10:58;7.70;;;1.90;;
21647;SDS011;10985;54.182;7.890;2023-08-08T07:13:24;5.85;;;2.78;;
21647;SDS011;10985;54.182;7.890;2023-08-08T07:15:49;12.35;;;2.10;;
21647;SDS011;10985;54.182;7.890;2023-08-08T07:18:15;11.50;;;2.45;;
21647;SDS011;10985;54.182;7.890;2023-08-08T07:20:40;11.27;;;1.77;;
21647;SDS011;10985;54.182;7.890;2023-08-08T07:23:06;12.60;;;3.00;;
21647;SDS011;10985;54.182;7.890;2023-08-08T07:25:31;9.60;;;2.13;;
21647;SDS011;10985;54.182;7.890;2023-08-08T07:27:57;8.52;;;2.17;;
21647;SDS011;10985;54.182;7.890;2023-08-08T07:30:23;11.88;;;2.42;;
21647;SDS011;10985;54.182;7.890;2023-08-08T07:32:50;12.25;;;2.75;;
21647;SDS011;10985;54.182;7.890;2023-08-08T07:35:16;12.75;;;2.50;;
21647;SDS011;10985;54.182;7.890;2023-08-08T07:37:42;8.48;;;2.38;;
21647;SDS011;10985;54.182;7.890;2023-08-08T07:40:17;12.30;;;2.75;;
21647;SDS011;10985;54.182;7.890;2023-08-08T07:42:44;7.35;;;2.15;;
21647;SDS011;10985;54.182;7.890;2023-08-08T07:45:11;11.45;;;2.90;;
21647;SDS011;10985;54.182;7.890;2023-08-08T07:47:37;16.38;;;2.88;;
21647;SDS011;10985;54.182;7.890;2023-08-08T07:50:02;12.25;;;2.70;;
21647;SDS011;10985;54.182;7.890;2023-08-08T07:52:28;19.55;;;3.35;;
21647;SDS011;10985;54.182;7.890;2023-08-08T07:54:54;23.45;;;3.72;;
21647;SDS011;10985;54.182;7.890;2023-08-08T07:57:19;20.52;;;3.65;;
21647;SDS011;10985;54.182;7.890;2023-08-08T07:59:44;17.17;;;3.05;;
21647;SDS011;10985;54.182;7.890;2023-08-08T08:02:10;25.52;;;3.25;;
21647;SDS011;10985;54.182;7.890;2023-08-08T08:04:36;9.57;;;2.22;;
21647;SDS011;10985;54.182;7.890;2023-08-08T08:07:01;13.70;;;2.75;;
21647;SDS011;10985;54.182;7.890;2023-08-08T08:09:27;7.45;;;2.17;;
21647;SDS011;10985;54.182;7.890;2023-08-08T08:11:53;13.18;;;2.53;;
21647;SDS011;10985;54.182;7.890;2023-08-08T08:14:19;12.48;;;2.78;;
21647;SDS011;10985;54.182;7.890;2023-08-08T08:16:45;24.65;;;2.92;;
21647;SDS011;10985;54.182;7.890;2023-08-08T08:19:11;14.98;;;3.00;;
21647;SDS011;10985;54.182;7.890;2023-08-08T08:21:36;9.73;;;2.70;;
21647;SDS011;10985;54.182;7.890;2023-08-08T08:24:02;18.10;;;2.88;;
21647;SDS011;10985;54.182;7.890;2023-08-08T08:26:28;11.27;;;2.40;;
21647;SDS011;10985;54.182;7.890;2023-08-08T08:28:53;10.07;;;2.67;;
21647;SDS011;10985;54.182;7.890;2023-08-08T08:31:19;10.98;;;2.70;;
21647;SDS011;10985;54.182;7.890;2023-08-08T08:33:44;9.88;;;2.40;;
21647;SDS011;10985;54.182;7.890;2023-08-08T08:36:10;8.25;;;1.98;;
21647;SDS011;10985;54.182;7.890;2023-08-08T08:38:36;8.40;;;2.35;;
21647;SDS011;10985;54.182;7.890;2023-08-08T08:41:01;7.38;;;2.25;;
21647;SDS011;10985;54.182;7.890;2023-08-08T08:43:28;7.32;;;2.40;;
21647;SDS011;10985;54.182;7.890;2023-08-08T08:45:55;13.38;;;2.88;;
21647;SDS011;10985;54.182;7.890;2023-08-08T08:48:23;9.73;;;2.35;;
21647;SDS011;10985;54.182;7.890;2023-08-08T08:50:50;7.43;;;2.03;;
21647;SDS011;10985;54.182;7.890;2023-08-08T08:53:16;10.07;;;2.22;;
21647;SDS011;10985;54.182;7.890;2023-08-08T08:55:42;14.00;;;2.90;;
21647;SDS011;10985;54.182;7.890;2023-08-08T08:58:09;7.85;;;2.33;;
21647;SDS011;10985;54.182;7.890;2023-08-08T09:00:35;15.80;;;3.03;;
21647;SDS011;10985;54.182;7.890;2023-08-08T09:03:01;14.32;;;2.50;;
21647;SDS011;10985;54.182;7.890;2023-08-08T09:05:28;17.85;;;3.10;;
21647;SDS011;10985;54.182;7.890;2023-08-08T09:07:55;19.30;;;2.97;;
21647;SDS011;10985;54.182;7.890;2023-08-08T09:10:20;12.95;;;2.60;;
21647;SDS011;10985;54.182;7.890;2023-08-08T09:12:46;9.35;;;2.50;;
21647;SDS011;10985;54.182;7.890;2023-08-08T09:15:12;5.18;;;1.95;;
21647;SDS011;10985;54.182;7.890;2023-08-08T09:17:41;8.43;;;2.00;;
21647;SDS011;10985;54.182;7.890;2023-08-08T09:20:08;7.80;;;1.98;;
21647;SDS011;10985;54.182;7.890;2023-08-08T09:22:36;9.98;;;2.28;;
21647;SDS011;10985;54.182;7.890;2023-08-08T09:25:02;16.02;;;3.03;;
21647;SDS011;10985;54.182;7.890;2023-08-08T09:27:28;7.35;;;2.05;;
21647;SDS011;10985;54.182;7.890;2023-08-08T09:29:54;7.43;;;2.47;;
21647;SDS011;10985;54.182;7.890;2023-08-08T09:32:20;4.32;;;1.38;;
21647;SDS011;10985;54.182;7.890;2023-08-08T09:34:45;7.38;;;1.73;;
21647;SDS011;10985;54.182;7.890;2023-08-08T09:37:11;10.10;;;2.00;;
21647;SDS011;10985;54.182;7.890;2023-08-08T09:39:36;13.20;;;2.42;;
21647;SDS011;10985;54.182;7.890;2023-08-08T09:42:02;8.43;;;2.67;;
21647;SDS011;10985;54.182;7.890;2023-08-08T09:44:31;11.30;;;2.08;;
21647;SDS011;10985;54.182;7.890;2023-08-08T09:46:59;10.85;;;2.88;;
21647;SDS011;10985;54.182;7.890;2023-08-08T09:49:25;10.38;;;2.65;;
21647;SDS011;10985;54.182;7.890;2023-08-08T09:51:52;12.68;;;2.53;;
21647;SDS011;10985;54.182;7.890;2023-08-08T09:54:17;15.60;;;2.28;;
21647;SDS011;10985;54.182;7.890;2023-08-08T09:56:44;13.52;;;3.20;;
21647;SDS011;10985;54.182;7.890;2023-08-08T09:59:10;14.68;;;2.35;;
21647;SDS011;10985;54.182;7.890;2023-08-08T10:01:39;8.73;;;2.50;;
21647;SDS011;10985;54.182;7.890;2023-08-08T10:04:06;16.70;;;2.55;;
21647;SDS011;10985;54.182;7.890;2023-08-08T10:06:32;12.60;;;3.30;;
21647;SDS011;10985;54.182;7.890;2023-08-08T10:08:59;9.20;;;2.50;;
21647;SDS011;10985;54.182;7.890;2023-08-08T10:11:26;12.20;;;2.45;;
21647;SDS011;10985;54.182;7.890;2023-08-08T10:13:53;12.63;;;2.60;;
21647;SDS011;10985;54.182;7.890;2023-08-08T10:16:19;15.63;;;3.00;;
21647;SDS011;10985;54.182;7.890;2023-08-08T10:19:00;15.48;;;3.00;;
21647;SDS011;10985;54.182;7.890;2023-08-08T10:21:27;29.05;;;4.45;;
21647;SDS011;10985;54.182;7.890;2023-08-08T10:24:03;17.67;;;3.10;;
21647;SDS011;10985;54.182;7.890;2023-08-08T10:26:29;14.65;;;3.35;;
21647;SDS011;10985;54.182;7.890;2023-08-08T10:28:56;17.38;;;3.22;;
21647;SDS011;10985;54.182;7.890;2023-08-08T10:31:22;12.00;;;2.30;;
21647;SDS011;10985;54.182;7.890;2023-08-08T10:33:48;17.70;;;3.42;;
21647;SDS011;10985;54.182;7.890;2023-08-08T10:36:14;15.77;;;3.13;;
21647;SDS011;10985;54.182;7.890;2023-08-08T10:38:44;18.42;;;3.35;;
21647;SDS011;10985;54.182;7.890;2023-08-08T10:41:15;12.35;;;2.75;;
21647;SDS011;10985;54.182;7.890;2023-08-08T10:43:49;13.00;;;2.97;;
21647;SDS011;10985;54.182;7.890;2023-08-08T10:46:29;9.07;;;2.50;;
21647;SDS011;10985;54.182;7.890;2023-08-08T10:48:57;14.98;;;3.05;;
21647;SDS011;10985;54.182;7.890;2023-08-08T10:51:31;11.52;;;2.58;;
21647;SDS011;10985;54.182;7.890;2023-08-08T10:54:03;11.93;;;2.58;;
21647;SDS011;10985;54.182;7.890;2023-08-08T10:56:34;10.10;;;2.55;;
21647;SDS011;10985;54.182;7.890;2023-08-08T10:59:11;14.02;;;2.97;;
21647;SDS011;10985;54.182;7.890;2023-08-08T11:01:41;12.35;;;3.17;;
21647;SDS011;10985;54.182;7.890;2023-08-08T11:04:10;8.68;;;2.55;;
21647;SDS011;10985;54.182;7.890;2023-08-08T11:06:36;13.63;;;2.92;;
21647;SDS011;10985;54.182;7.890;2023-08-08T11:09:05;12.52;;;3.00;;
21647;SDS011;10985;54.182;7.890;2023-08-08T11:11:38;15.32;;;3.22;;
21647;SDS011;10985;54.182;7.890;2023-08-08T11:16:35;12.30;;;2.65;;
21647;SDS011;10985;54.182;7.890;2023-08-08T11:19:01;11.35;;;2.92;;
21647;SDS011;10985;54.182;7.890;2023-08-08T11:21:27;12.23;;;3.00;;
21647;SDS011;10985;54.182;7.890;2023-08-08T11:23:53;13.23;;;2.60;;
21647;SDS011;10985;54.182;7.890;2023-08-08T11:26:18;11.80;;;2.75;;
21647;SDS011;10985;54.182;7.890;2023-08-08T11:28:50;9.73;;;3.03;;
21647;SDS011;10985;54.182;7.890;2023-08-08T11:31:17;14.70;;;3.20;;
21647;SDS011;10985;54.182;7.890;2023-08-08T11:33:46;8.77;;;2.20;;
21647;SDS011;10985;54.182;7.890;2023-08-08T11:36:13;9.15;;;2.75;;
21647;SDS011;10985;54.182;7.890;2023-08-08T11:38:39;11.63;;;2.88;;
21647;SDS011;10985;54.182;7.890;2023-08-08T11:41:06;9.25;;;2.42;;
21647;SDS011;10985;54.182;7.890;2023-08-08T11:43:32;7.60;;;2.25;;
21647;SDS011;10985;54.182;7.890;2023-08-08T11:46:01;7.88;;;2.58;;
21647;SDS011;10985;54.182;7.890;2023-08-08T11:48:27;10.90;;;2.17;;
21647;SDS011;10985;54.182;7.890;2023-08-08T11:50:52;11.68;;;3.58;;
21647;SDS011;10985;54.182;7.890;2023-08-08T11:53:18;17.52;;;3.33;;
21647;SDS011;10985;54.182;7.890;2023-08-08T11:55:44;13.38;;;2.80;;
21647;SDS011;10985;54.182;7.890;2023-08-08T11:58:14;16.52;;;2.80;;
21647;SDS011;10985;54.182;7.890;2023-08-08T12:00:40;23.92;;;3.28;;
21647;SDS011;10985;54.182;7.890;2023-08-08T12:03:10;7.53;;;2.30;;
21647;SDS011;10985;54.182;7.890;2023-08-08T12:05:38;13.07;;;2.50;;
21647;SDS011;10985;54.182;7.890;2023-08-08T12:08:04;15.45;;;2.50;;
21647;SDS011;10985;54.182;7.890;2023-08-08T12:10:31;19.30;;;3.40;;
21647;SDS011;10985;54.182;7.890;2023-08-08T12:12:57;27.85;;;4.13;;
21647;SDS011;10985;54.182;7.890;2023-08-08T12:15:33;24.10;;;3.88;;
21647;SDS011;10985;54.182;7.890;2023-08-08T12:18:01;25.92;;;3.72;;
21647;SDS011;10985;54.182;7.890;2023-08-08T12:20:28;20.23;;;3.03;;
21647;SDS011;10985;54.182;7.890;2023-08-08T12:22:57;18.27;;;3.20;;
21647;SDS011;10985;54.182;7.890;2023-08-08T12:25:23;21.58;;;3.40;;
21647;SDS011;10985;54.182;7.890;2023-08-08T12:27:49;16.52;;;3.50;;
21647;SDS011;10985;54.182;7.890;2023-08-08T12:30:14;18.90;;;4.57;;
21647;SDS011;10985;54.182;7.890;2023-08-08T12:32:40;14.68;;;3.38;;
21647;SDS011;10985;54.182;7.890;2023-08-08T12:35:06;21.92;;;4.53;;
21647;SDS011;10985;54.182;7.890;2023-08-08T12:37:32;24.70;;;3.75;;
21647;SDS011;10985;54.182;7.890;2023-08-08T12:39:58;11.60;;;2.65;;
21647;SDS011;10985;54.182;7.890;2023-08-08T12:42:23;23.23;;;3.83;;
21647;SDS011;10985;54.182;7.890;2023-08-08T12:44:49;16.30;;;3.45;;
21647;SDS011;10985;54.182;7.890;2023-08-08T12:47:16;32.05;;;4.55;;
21647;SDS011;10985;54.182;7.890;2023-08-08T12:49:43;30.33;;;4.88;;
21647;SDS011;10985;54.182;7.890;2023-08-08T12:52:09;23.58;;;4.32;;
21647;SDS011;10985;54.182;7.890;2023-08-08T12:54:34;20.13;;;4.03;;
21647;SDS011;10985;54.182;7.890;2023-08-08T12:57:01;20.42;;;4.13;;
21647;SDS011;10985;54.182;7.890;2023-08-08T12:59:26;22.95;;;3.67;;
21647;SDS011;10985;54.182;7.890;2023-08-08T13:01:52;14.48;;;3.55;;
21647;SDS011;10985;54.182;7.890;2023-08-08T13:04:17;21.95;;;4.32;;
21647;SDS011;10985;54.182;7.890;2023-08-08T13:06:44;15.65;;;3.67;;
21647;SDS011;10985;54.182;7.890;2023-08-08T13:09:10;17.70;;;3.85;;
21647;SDS011;10985;54.182;7.890;2023-08-08T13:11:35;20.23;;;3.05;;
21647;SDS011;10985;54.182;7.890;2023-08-08T13:14:01;22.33;;;3.38;;
21647;SDS011;10985;54.182;7.890;2023-08-08T13:16:26;12.20;;;3.00;;
21647;SDS011;10985;54.182;7.890;2023-08-08T13:18:52;21.17;;;3.58;;
21647;SDS011;10985;54.182;7.890;2023-08-08T13:21:17;13.02;;;3.28;;
21647;SDS011;10985;54.182;7.890;2023-08-08T13:23:43;19.15;;;3.30;;
21647;SDS011;10985;54.182;7.890;2023-08-08T13:26:08;12.45;;;2.70;;
21647;SDS011;10985;54.182;7.890;2023-08-08T13:28:34;13.23;;;2.97;;
21647;SDS011;10985;54.182;7.890;2023-08-08T13:30:59;12.88;;;2.78;;
21647;SDS011;10985;54.182;7.890;2023-08-08T13:33:25;22.95;;;3.97;;
21647;SDS011;10985;54.182;7.890;2023-08-08T13:35:51;17.48;;;3.97;;
21647;SDS011;10985;54.182;7.890;2023-08-08T13:38:16;20.52;;;3.60;;
21647;SDS011;10985;54.182;7.890;2023-08-08T13:40:42;24.88;;;4.72;;
21647;SDS011;10985;54.182;7.890;2023-08-08T13:43:08;21.63;;;4.75;;
21647;SDS011;10985;54.182;7.890;2023-08-08T13:45:34;23.20;;;4.15;;
21647;SDS011;10985;54.182;7.890;2023-08-08T13:47:59;17.42;;;3.65;;
21647;SDS011;10985;54.182;7.890;2023-08-08T13:50:25;27.23;;;3.92;;
21647;SDS011;10985;54.182;7.890;2023-08-08T13:52:50;47.88;;;6.22;;
21647;SDS011;10985;54.182;7.890;2023-08-08T13:55:17;19.00;;;3.53;;
21647;SDS011;10985;54.182;7.890;2023-08-08T13:57:43;34.03;;;5.63;;
21647;SDS011;10985;54.182;7.890;2023-08-08T14:00:09;28.63;;;4.45;;
21647;SDS011;10985;54.182;7.890;2023-08-08T14:02:37;37.75;;;5.38;;
21647;SDS011;10985;54.182;7.890;2023-08-08T14:05:05;30.38;;;4.30;;
21647;SDS011;10985;54.182;7.890;2023-08-08T14:07:32;28.55;;;5.07;;
21647;SDS011;10985;54.182;7.890;2023-08-08T14:09:58;39.28;;;7.43;;
21647;SDS011;10985;54.182;7.890;2023-08-08T14:12:24;26.17;;;4.45;;
21647;SDS011;10985;54.182;7.890;2023-08-08T14:14:49;26.90;;;4.65;;
21647;SDS011;10985;54.182;7.890;2023-08-08T14:17:15;28.80;;;5.38;;
21647;SDS011;10985;54.182;7.890;2023-08-08T14:19:41;34.92;;;5.28;;
21647;SDS011;10985;54.182;7.890;2023-08-08T14:22:06;25.60;;;5.13;;
21647;SDS011;10985;54.182;7.890;2023-08-08T14:24:32;17.98;;;3.75;;
21647;SDS011;10985;54.182;7.890;2023-08-08T14:26:57;20.08;;;4.85;;
21647;SDS011;10985;54.182;7.890;2023-08-08T14:29:23;25.38;;;6.43;;
21647;SDS011;10985;54.182;7.890;2023-08-08T14:31:48;15.88;;;3.55;;
21647;SDS011;10985;54.182;7.890;2023-08-08T14:34:14;20.33;;;3.55;;
21647;SDS011;10985;54.182;7.890;2023-08-08T14:36:40;19.75;;;4.20;;
21647;SDS011;10985;54.182;7.890;2023-08-08T14:39:06;24.25;;;4.10;;